createdAt,value
2015-10-27T00:00:12.044Z,73973
2015-10-27T00:00:23.716Z,73969
2015-10-27T00:00:36.044Z,73962
2015-10-27T00:00:48.407Z,73962
2015-10-27T00:01:00.735Z,73972
2015-10-27T00:01:13.063Z,73971
2015-10-27T00:01:25.391Z,73962
2015-10-27T00:01:37.722Z,73964
2015-10-27T00:01:50.066Z,73965
2015-10-27T00:02:01.691Z,73973
2015-10-27T00:02:14.035Z,73966
2015-10-27T00:02:26.394Z,73963
2015-10-27T00:02:38.741Z,73962
2015-10-27T00:02:51.069Z,73972
2015-10-27T00:03:03.382Z,73965
2015-10-27T00:03:15.710Z,73960
2015-10-27T00:03:28.038Z,73961
2015-10-27T00:03:40.367Z,73968
2015-10-27T00:03:52.711Z,73970
2015-10-27T00:04:05.039Z,73963
2015-10-27T00:04:17.383Z,73961
2015-10-27T00:04:29.758Z,73966
2015-10-27T00:04:42.104Z,73970
2015-10-27T00:04:54.448Z,73965
2015-10-27T00:05:06.776Z,73963
2015-10-27T00:05:19.104Z,73966
2015-10-27T00:05:31.432Z,73970
2015-10-27T00:05:43.779Z,73969
2015-10-27T00:05:56.107Z,73963
2015-10-27T00:06:08.435Z,73962
2015-10-27T00:06:20.779Z,73973
2015-10-27T00:06:33.123Z,73977
2015-10-27T00:06:45.485Z,73962
2015-10-27T00:06:57.860Z,73963
2015-10-27T00:07:10.235Z,73962
2015-10-27T00:07:22.548Z,73967
2015-10-27T00:07:34.970Z,73963
2015-10-27T00:07:47.300Z,73959
2015-10-27T00:07:58.956Z,73960
2015-10-27T00:08:11.284Z,73962
2015-10-27T00:08:23.612Z,73968
2015-10-27T00:08:35.972Z,73968
2015-10-27T00:08:47.600Z,73958
2015-10-27T00:08:59.959Z,73966
2015-10-27T00:09:12.318Z,73964
2015-10-27T00:09:24.662Z,73967
2015-10-27T00:09:36.975Z,73967
2015-10-27T00:09:49.306Z,73963
2015-10-27T00:10:01.634Z,73969
2015-10-27T00:10:13.978Z,73968
2015-10-27T00:10:26.290Z,73964
2015-10-27T00:10:38.637Z,73963
2015-10-27T00:10:50.981Z,73969
2015-10-27T00:11:03.324Z,73967
2015-10-27T00:11:15.699Z,73961
2015-10-27T00:11:28.028Z,73960
2015-10-27T00:11:40.342Z,73965
2015-10-27T00:11:52.655Z,73968
2015-10-27T00:12:04.826Z,73963
2015-10-27T00:12:17.155Z,73960
2015-10-27T00:12:29.483Z,73960
2015-10-27T00:12:41.829Z,73965
2015-10-27T00:12:54.158Z,73968
2015-10-27T00:13:06.486Z,73965
2015-10-27T00:13:18.814Z,73955
2015-10-27T00:13:31.142Z,73964
2015-10-27T00:13:43.472Z,73971
2015-10-27T00:13:55.816Z,73961
2015-10-27T00:14:08.160Z,73958
2015-10-27T00:14:20.519Z,73962
2015-10-27T00:14:32.878Z,73968
2015-10-27T00:14:45.225Z,73961
2015-10-27T00:14:57.569Z,73962
2015-10-27T00:15:09.897Z,73960
2015-10-27T00:15:22.209Z,73961
2015-10-27T00:15:34.538Z,73960
2015-10-27T00:15:46.712Z,73968
2015-10-27T00:15:59.041Z,73965
2015-10-27T00:16:11.384Z,73955
2015-10-27T00:16:23.728Z,73959
2015-10-27T00:16:36.103Z,73958
2015-10-27T00:16:48.465Z,73967
2015-10-27T00:17:00.856Z,73966
2015-10-27T00:17:13.169Z,73959
2015-10-27T00:17:25.497Z,73959
2015-10-27T00:17:37.106Z,73959
2015-10-27T00:17:49.436Z,73967
2015-10-27T00:18:01.780Z,73967
2015-10-27T00:18:14.202Z,73962
2015-10-27T00:18:26.405Z,73961
2015-10-27T00:18:38.767Z,73959
2015-10-27T00:18:51.142Z,73965
2015-10-27T00:19:03.502Z,73964
2015-10-27T00:19:15.877Z,73967
2015-10-27T00:19:28.205Z,73965
2015-10-27T00:19:40.552Z,73973
2015-10-27T00:19:52.883Z,73961
2015-10-27T00:20:05.226Z,73960
2015-10-27T00:20:17.601Z,73958
2015-10-27T00:20:29.961Z,73965
2015-10-27T00:20:42.291Z,73964
2015-10-27T00:20:54.619Z,73961
2015-10-27T00:21:07.228Z,73964
2015-10-27T00:21:19.572Z,73970
2015-10-27T00:21:31.900Z,73958
2015-10-27T00:21:44.278Z,73964
2015-10-27T00:21:56.606Z,73964
2015-10-27T00:22:08.935Z,73965
2015-10-27T00:22:21.263Z,73967
2015-10-27T00:22:33.591Z,73969
2015-10-27T00:22:45.922Z,73965
2015-10-27T00:22:58.250Z,73963
2015-10-27T00:23:10.578Z,73966
2015-10-27T00:23:22.938Z,73967
2015-10-27T00:23:35.297Z,73968
2015-10-27T00:23:47.658Z,73966
2015-10-27T00:24:00.049Z,73966
2015-10-27T00:24:11.674Z,73969
2015-10-27T00:24:24.002Z,73963
2015-10-27T00:24:36.346Z,73969
2015-10-27T00:24:48.677Z,73972
2015-10-27T00:25:01.068Z,73969
2015-10-27T00:25:13.255Z,73967
2015-10-27T00:25:25.583Z,73968
2015-10-27T00:25:37.930Z,73969
2015-10-27T00:25:50.289Z,73969
2015-10-27T00:26:02.633Z,73967
2015-10-27T00:26:14.961Z,73969
2015-10-27T00:26:27.305Z,73969
2015-10-27T00:26:39.652Z,73962
2015-10-27T00:26:52.011Z,73969
2015-10-27T00:27:04.386Z,73964
2015-10-27T00:27:16.730Z,73969
2015-10-27T00:27:29.074Z,73966
2015-10-27T00:27:41.404Z,73966
2015-10-27T00:27:53.763Z,73967
2015-10-27T00:28:06.091Z,73967
2015-10-27T00:28:18.419Z,73969
2015-10-27T00:28:30.763Z,73965
2015-10-27T00:28:43.110Z,73962
2015-10-27T00:28:55.313Z,73967
2015-10-27T00:29:07.688Z,73962
2015-10-27T00:29:20.032Z,73965
2015-10-27T00:29:32.360Z,73965
2015-10-27T00:29:44.691Z,73967
2015-10-27T00:29:57.035Z,73961
2015-10-27T00:30:09.378Z,73964
2015-10-27T00:30:21.753Z,73968
2015-10-27T00:30:34.097Z,73972
2015-10-27T00:30:46.428Z,73967
2015-10-27T00:30:58.772Z,73975
2015-10-27T00:31:11.116Z,73970
2015-10-27T00:31:23.475Z,73976
2015-10-27T00:31:35.147Z,73968
2015-10-27T00:31:47.524Z,73972
2015-10-27T00:31:59.868Z,73970
2015-10-27T00:32:12.196Z,73976
2015-10-27T00:32:23.821Z,73974
2015-10-27T00:32:36.149Z,73974
2015-10-27T00:32:48.480Z,73970
2015-10-27T00:33:00.824Z,73971
2015-10-27T00:33:13.183Z,73973
2015-10-27T00:33:25.527Z,73970
2015-10-27T00:33:37.715Z,73972
2015-10-27T00:33:50.046Z,73968
2015-10-27T00:34:02.389Z,73973
2015-10-27T00:34:14.046Z,73975
2015-10-27T00:34:26.405Z,73975
2015-10-27T00:34:38.735Z,73965
2015-10-27T00:34:51.063Z,73976
2015-10-27T00:35:03.407Z,73971
2015-10-27T00:35:15.751Z,73973
2015-10-27T00:35:28.110Z,73968
2015-10-27T00:35:40.487Z,73972
2015-10-27T00:35:52.831Z,73966
2015-10-27T00:36:05.175Z,73968
2015-10-27T00:36:17.565Z,73967
2015-10-27T00:36:29.925Z,73971
2015-10-27T00:36:42.256Z,73968
2015-10-27T00:36:54.443Z,73966
2015-10-27T00:37:06.756Z,73967
2015-10-27T00:37:19.100Z,73964
2015-10-27T00:37:31.428Z,73966
2015-10-27T00:37:43.759Z,73964
2015-10-27T00:37:56.103Z,73967
2015-10-27T00:38:08.462Z,73969
2015-10-27T00:38:20.837Z,73971
2015-10-27T00:38:33.165Z,73965
2015-10-27T00:38:45.356Z,73971
2015-10-27T00:38:56.981Z,73964
2015-10-27T00:39:09.324Z,73966
2015-10-27T00:39:21.699Z,73969
2015-10-27T00:39:34.043Z,73973
2015-10-27T00:39:46.374Z,73974
2015-10-27T00:39:58.702Z,73971
2015-10-27T00:40:11.030Z,73968
2015-10-27T00:40:23.359Z,73961
2015-10-27T00:40:35.687Z,73969
2015-10-27T00:40:48.018Z,73963
2015-10-27T00:41:00.362Z,73974
2015-10-27T00:41:12.705Z,73966
2015-10-27T00:41:25.065Z,73960
2015-10-27T00:41:37.424Z,73967
2015-10-27T00:41:49.770Z,73968
2015-10-27T00:42:02.098Z,73967
2015-10-27T00:42:14.442Z,73967
2015-10-27T00:42:26.770Z,73967
2015-10-27T00:42:39.101Z,73968
2015-10-27T00:42:51.413Z,73965
2015-10-27T00:43:03.757Z,73959
2015-10-27T00:43:16.101Z,73969
2015-10-27T00:43:28.460Z,73966
2015-10-27T00:43:40.823Z,73970
2015-10-27T00:43:53.166Z,73962
2015-10-27T00:44:05.495Z,73969
2015-10-27T00:44:17.823Z,73969
2015-10-27T00:44:30.151Z,73963
2015-10-27T00:44:42.482Z,73966
2015-10-27T00:44:54.810Z,73963
2015-10-27T00:45:07.154Z,73966
2015-10-27T00:45:19.513Z,73967
2015-10-27T00:45:31.873Z,73968
2015-10-27T00:45:44.249Z,73964
2015-10-27T00:45:56.592Z,73962
2015-10-27T00:46:08.920Z,73964
2015-10-27T00:46:21.249Z,73968
2015-10-27T00:46:33.592Z,73966
2015-10-27T00:46:45.939Z,73963
2015-10-27T00:46:58.283Z,73972
2015-10-27T00:47:10.455Z,73972
2015-10-27T00:47:22.767Z,73967
2015-10-27T00:47:35.111Z,73965
2015-10-27T00:47:47.458Z,73968
2015-10-27T00:47:59.083Z,73958
2015-10-27T00:48:11.411Z,73965
2015-10-27T00:48:23.739Z,73961
2015-10-27T00:48:36.067Z,73967
2015-10-27T00:48:48.383Z,73962
2015-10-27T00:49:00.711Z,73959
2015-10-27T00:49:13.054Z,73969
2015-10-27T00:49:25.429Z,73963
2015-10-27T00:49:37.773Z,73962
2015-10-27T00:49:50.103Z,73960
2015-10-27T00:50:02.431Z,73959
2015-10-27T00:50:14.760Z,73969
2015-10-27T00:50:27.103Z,73961
2015-10-27T00:50:39.434Z,73968
2015-10-27T00:50:51.778Z,73965
2015-10-27T00:51:04.138Z,73968
2015-10-27T00:51:16.497Z,73962
2015-10-27T00:51:28.856Z,73972
2015-10-27T00:51:41.219Z,73962
2015-10-27T00:51:53.547Z,73963
2015-10-27T00:52:05.875Z,73967
2015-10-27T00:52:18.203Z,73959
2015-10-27T00:52:30.547Z,73962
2015-10-27T00:52:42.878Z,73960
2015-10-27T00:52:54.503Z,73957
2015-10-27T00:53:06.831Z,73960
2015-10-27T00:53:19.175Z,73960
2015-10-27T00:53:30.831Z,73963
2015-10-27T00:53:43.161Z,73961
2015-10-27T00:53:55.489Z,73962
2015-10-27T00:54:07.849Z,73959
2015-10-27T00:54:20.177Z,73969
2015-10-27T00:54:32.552Z,73959
2015-10-27T00:54:44.914Z,73963
2015-10-27T00:54:57.258Z,73964
2015-10-27T00:55:09.586Z,73965
2015-10-27T00:55:21.914Z,73959
2015-10-27T00:55:34.242Z,73957
2015-10-27T00:55:46.573Z,73963
2015-10-27T00:55:58.902Z,73960
2015-10-27T00:56:11.245Z,73963
2015-10-27T00:56:23.589Z,73965
2015-10-27T00:56:35.948Z,73963
2015-10-27T00:56:48.311Z,73962
2015-10-27T00:57:00.670Z,73962
2015-10-27T00:57:12.842Z,73964
2015-10-27T00:57:25.170Z,73962
2015-10-27T00:57:37.498Z,73959
2015-10-27T00:57:49.813Z,73959
2015-10-27T00:58:02.157Z,73963
2015-10-27T00:58:14.485Z,73964
2015-10-27T00:58:26.813Z,73969
2015-10-27T00:58:39.144Z,73962
2015-10-27T00:58:51.472Z,73969
2015-10-27T00:59:03.816Z,73963
2015-10-27T00:59:16.144Z,73960
2015-10-27T00:59:28.472Z,73965
2015-10-27T00:59:40.819Z,73967
2015-10-27T00:59:53.163Z,73962
2015-10-27T01:00:05.584Z,73969
2015-10-27T01:00:17.928Z,73964
2015-10-27T01:00:30.256Z,73961
2015-10-27T01:00:42.587Z,73965
2015-10-27T01:00:54.916Z,73968
2015-10-27T01:01:07.259Z,73963
2015-10-27T01:01:19.572Z,73963
2015-10-27T01:01:31.916Z,73962
2015-10-27T01:01:44.260Z,73965
2015-10-27T01:01:56.604Z,73964
2015-10-27T01:02:08.979Z,73967
2015-10-27T01:02:21.323Z,73961
2015-10-27T01:02:33.651Z,73954
2015-10-27T01:02:45.982Z,73964
2015-10-27T01:02:58.326Z,73958
2015-10-27T01:03:10.654Z,73964
2015-10-27T01:03:22.982Z,73961
2015-10-27T01:03:35.326Z,73957
2015-10-27T01:03:47.673Z,73968
2015-10-27T01:04:00.016Z,73964
2015-10-27T01:04:12.376Z,73961
2015-10-27T01:04:24.594Z,73970
2015-10-27T01:04:36.954Z,73966
2015-10-27T01:04:49.269Z,73969
2015-10-27T01:05:01.597Z,73963
2015-10-27T01:05:13.910Z,73966
2015-10-27T01:05:26.238Z,73964
2015-10-27T01:05:38.582Z,73965
2015-10-27T01:05:50.929Z,73964
2015-10-27T01:06:03.288Z,73963
2015-10-27T01:06:15.600Z,73969
2015-10-27T01:06:27.929Z,73966
2015-10-27T01:06:40.259Z,73963
2015-10-27T01:06:52.587Z,73964
2015-10-27T01:07:04.196Z,73966
2015-10-27T01:07:16.556Z,73966
2015-10-27T01:07:28.884Z,73964
2015-10-27T01:07:40.543Z,73967
2015-10-27T01:07:52.887Z,73969
2015-10-27T01:08:05.262Z,73964
2015-10-27T01:08:17.574Z,73966
2015-10-27T01:08:29.918Z,73964
2015-10-27T01:08:42.249Z,73968
2015-10-27T01:08:54.577Z,73958
2015-10-27T01:09:06.905Z,73967
2015-10-27T01:09:19.093Z,73961
2015-10-27T01:09:31.437Z,73963
2015-10-27T01:09:43.815Z,73968
2015-10-27T01:09:56.174Z,73959
2015-10-27T01:10:08.502Z,73962
2015-10-27T01:10:20.830Z,73960
2015-10-27T01:10:33.158Z,73953
2015-10-27T01:10:45.504Z,73958
2015-10-27T01:10:57.832Z,73958
2015-10-27T01:11:10.192Z,73954
2015-10-27T01:11:22.535Z,73961
2015-10-27T01:11:34.863Z,73954
2015-10-27T01:11:47.195Z,73957
2015-10-27T01:11:59.523Z,73958
2015-10-27T01:12:11.851Z,73960
2015-10-27T01:12:24.179Z,73958
2015-10-27T01:12:36.507Z,73962
2015-10-27T01:12:48.853Z,73957
2015-10-27T01:13:01.212Z,73964
2015-10-27T01:13:13.572Z,73954
2015-10-27T01:13:25.931Z,73956
2015-10-27T01:13:38.259Z,73958
2015-10-27T01:13:50.590Z,73957
2015-10-27T01:14:02.918Z,73957
2015-10-27T01:14:15.262Z,73958
2015-10-27T01:14:27.653Z,73960
2015-10-27T01:14:39.686Z,73952
2015-10-27T01:14:52.014Z,73958
2015-10-27T01:15:04.342Z,73959
2015-10-27T01:15:15.952Z,73958
2015-10-27T01:15:28.280Z,73962
2015-10-27T01:15:40.611Z,73950
2015-10-27T01:15:52.955Z,73958
2015-10-27T01:16:05.298Z,73957
2015-10-27T01:16:17.658Z,73956
2015-10-27T01:16:30.017Z,73958
2015-10-27T01:16:42.379Z,73954
2015-10-27T01:16:54.708Z,73953
2015-10-27T01:17:07.051Z,73953
2015-10-27T01:17:19.379Z,73955
2015-10-27T01:17:31.723Z,73952
2015-10-27T01:17:44.070Z,73959
2015-10-27T01:17:56.398Z,73951
2015-10-27T01:18:08.742Z,73952
2015-10-27T01:18:21.101Z,73956
2015-10-27T01:18:33.461Z,73953
2015-10-27T01:18:45.791Z,73956
2015-10-27T01:18:58.119Z,73953
2015-10-27T01:19:10.463Z,73953
2015-10-27T01:19:22.791Z,73954
2015-10-27T01:19:35.134Z,73954
2015-10-27T01:19:47.497Z,73953
2015-10-27T01:19:59.856Z,73951
2015-10-27T01:20:12.247Z,73950
2015-10-27T01:20:24.575Z,73946
2015-10-27T01:20:36.919Z,73944
2015-10-27T01:20:49.265Z,73952
2015-10-27T01:21:01.594Z,73948
2015-10-27T01:21:13.937Z,73948
2015-10-27T01:21:26.265Z,73949
2015-10-27T01:21:38.609Z,73943
2015-10-27T01:21:50.222Z,73943
2015-10-27T01:22:02.534Z,73940
2015-10-27T01:22:14.847Z,73947
2015-10-27T01:22:27.175Z,73948
2015-10-27T01:22:39.503Z,73953
2015-10-27T01:22:51.817Z,73951
2015-10-27T01:23:05.802Z,73952
2015-10-27T01:23:17.833Z,73947
2015-10-27T01:23:30.161Z,73951
2015-10-27T01:23:42.508Z,73954
2015-10-27T01:23:54.836Z,73950
2015-10-27T01:24:07.164Z,73950
2015-10-27T01:24:19.508Z,73951
2015-10-27T01:24:31.867Z,73945
2015-10-27T01:24:44.230Z,73944
2015-10-27T01:24:56.589Z,73952
2015-10-27T01:25:08.948Z,73952
2015-10-27T01:25:21.292Z,73946
2015-10-27T01:25:33.620Z,73946
2015-10-27T01:25:45.983Z,73947
2015-10-27T01:25:58.342Z,73947
2015-10-27T01:26:10.701Z,73947
2015-10-27T01:26:23.029Z,73945
2015-10-27T01:26:35.358Z,73948
2015-10-27T01:26:47.688Z,73949
2015-10-27T01:27:00.016Z,73946
2015-10-27T01:27:12.344Z,73946
2015-10-27T01:27:24.672Z,73944
2015-10-27T01:27:37.016Z,73946
2015-10-27T01:27:49.378Z,73947
2015-10-27T01:28:01.738Z,73947
2015-10-27T01:28:14.066Z,73946
2015-10-27T01:28:26.253Z,73946
2015-10-27T01:28:38.597Z,73945
2015-10-27T01:28:50.943Z,73944
2015-10-27T01:29:03.302Z,73940
2015-10-27T01:29:15.646Z,73947
2015-10-27T01:29:27.818Z,73944
2015-10-27T01:29:40.149Z,73943
2015-10-27T01:29:52.477Z,73943
2015-10-27T01:30:04.805Z,73940
2015-10-27T01:30:17.133Z,73938
2015-10-27T01:30:29.493Z,73945
2015-10-27T01:30:41.823Z,73941
2015-10-27T01:30:54.182Z,73939
2015-10-27T01:31:06.541Z,73941
2015-10-27T01:31:18.885Z,73937
2015-10-27T01:31:31.213Z,73938
2015-10-27T01:31:43.544Z,73941
2015-10-27T01:31:55.873Z,73938
2015-10-27T01:32:08.201Z,73945
2015-10-27T01:32:20.544Z,73942
2015-10-27T01:32:32.888Z,73941
2015-10-27T01:32:45.235Z,73941
2015-10-27T01:32:57.594Z,73941
2015-10-27T01:33:09.938Z,73946
2015-10-27T01:33:22.282Z,73937
2015-10-27T01:33:34.610Z,73940
2015-10-27T01:33:46.941Z,73937
2015-10-27T01:33:59.269Z,73941
2015-10-27T01:34:11.597Z,73937
2015-10-27T01:34:23.925Z,73945
2015-10-27T01:34:36.269Z,73938
2015-10-27T01:34:48.615Z,73942
2015-10-27T01:35:00.974Z,73947
2015-10-27T01:35:13.318Z,73942
2015-10-27T01:35:25.677Z,73944
2015-10-27T01:35:38.006Z,73943
2015-10-27T01:35:50.337Z,73941
2015-10-27T01:36:02.665Z,73947
2015-10-27T01:36:15.259Z,73940
2015-10-27T01:36:27.587Z,73938
2015-10-27T01:36:39.899Z,73942
2015-10-27T01:36:52.246Z,73939
2015-10-27T01:37:04.605Z,73942
2015-10-27T01:37:16.965Z,73942
2015-10-27T01:37:29.324Z,73939
2015-10-27T01:37:41.686Z,73938
2015-10-27T01:37:54.015Z,73937
2015-10-27T01:38:06.343Z,73940
2015-10-27T01:38:18.686Z,73937
2015-10-27T01:38:30.858Z,73934
2015-10-27T01:38:43.173Z,73939
2015-10-27T01:38:55.517Z,73933
2015-10-27T01:39:07.876Z,73935
2015-10-27T01:39:20.220Z,73937
2015-10-27T01:39:32.579Z,73933
2015-10-27T01:39:44.238Z,73935
2015-10-27T01:39:56.582Z,73934
2015-10-27T01:40:08.191Z,73932
2015-10-27T01:40:20.801Z,73932
2015-10-27T01:40:33.113Z,73930
2015-10-27T01:40:45.443Z,73931
2015-10-27T01:40:57.772Z,73934
2015-10-27T01:41:10.131Z,73932
2015-10-27T01:41:22.459Z,73936
2015-10-27T01:41:34.803Z,73932
2015-10-27T01:41:47.181Z,73933
2015-10-27T01:41:59.587Z,73934
2015-10-27T01:42:11.915Z,73932
2015-10-27T01:42:24.243Z,73936
2015-10-27T01:42:36.571Z,73935
2015-10-27T01:42:48.918Z,73932
2015-10-27T01:43:01.278Z,73940
2015-10-27T01:43:13.606Z,73934
2015-10-27T01:43:25.949Z,73931
2015-10-27T01:43:38.309Z,73933
2015-10-27T01:43:50.671Z,73924
2015-10-27T01:44:02.999Z,73934
2015-10-27T01:44:15.327Z,73929
2015-10-27T01:44:27.640Z,73930
2015-10-27T01:44:39.968Z,73930
2015-10-27T01:44:52.298Z,73923
2015-10-27T01:45:04.626Z,73928
2015-10-27T01:45:16.970Z,73932
2015-10-27T01:45:29.329Z,73932
2015-10-27T01:45:41.692Z,73930
2015-10-27T01:45:54.067Z,73928
2015-10-27T01:46:06.426Z,73922
2015-10-27T01:46:18.754Z,73925
2015-10-27T01:46:31.082Z,73927
2015-10-27T01:46:43.257Z,73930
2015-10-27T01:46:55.585Z,73929
2015-10-27T01:47:07.914Z,73932
2015-10-27T01:47:20.242Z,73927
2015-10-27T01:47:32.601Z,73926
2015-10-27T01:47:44.963Z,73926
2015-10-27T01:47:57.323Z,73931
2015-10-27T01:48:09.667Z,73923
2015-10-27T01:48:21.995Z,73927
2015-10-27T01:48:34.323Z,73930
2015-10-27T01:48:46.669Z,73926
2015-10-27T01:48:59.012Z,73924
2015-10-27T01:49:11.356Z,73926
2015-10-27T01:49:23.700Z,73925
2015-10-27T01:49:36.059Z,73925
2015-10-27T01:49:48.422Z,73929
2015-10-27T01:50:00.750Z,73928
2015-10-27T01:50:13.078Z,73929
2015-10-27T01:50:25.406Z,73925
2015-10-27T01:50:37.015Z,73928
2015-10-27T01:50:49.346Z,73918
2015-10-27T01:51:01.675Z,73923
2015-10-27T01:51:14.034Z,73925
2015-10-27T01:51:26.378Z,73915
2015-10-27T01:51:38.737Z,73924
2015-10-27T01:51:51.099Z,73928
2015-10-27T01:52:03.443Z,73919
2015-10-27T01:52:15.771Z,73925
2015-10-27T01:52:28.099Z,73920
2015-10-27T01:52:40.428Z,73919
2015-10-27T01:52:52.773Z,73914
2015-10-27T01:53:05.101Z,73917
2015-10-27T01:53:17.430Z,73923
2015-10-27T01:53:29.773Z,73912
2015-10-27T01:53:42.136Z,73919
2015-10-27T01:53:54.495Z,73914
2015-10-27T01:54:06.839Z,73918
2015-10-27T01:54:19.151Z,73919
2015-10-27T01:54:31.495Z,73921
2015-10-27T01:54:43.826Z,73928
2015-10-27T01:54:56.170Z,73918
2015-10-27T01:55:08.498Z,73921
2015-10-27T01:55:20.826Z,73915
2015-10-27T01:55:33.170Z,73925
2015-10-27T01:55:45.516Z,73915
2015-10-27T01:55:57.875Z,73927
2015-10-27T01:56:10.203Z,73916
2015-10-27T01:56:22.531Z,73922
2015-10-27T01:56:34.844Z,73921
2015-10-27T01:56:47.158Z,73921
2015-10-27T01:56:59.471Z,73919
2015-10-27T01:57:11.799Z,73918
2015-10-27T01:57:24.127Z,73914
2015-10-27T01:57:36.486Z,73919
2015-10-27T01:57:48.833Z,73922
2015-10-27T01:58:01.161Z,73914
2015-10-27T01:58:13.505Z,73914
2015-10-27T01:58:25.833Z,73914
2015-10-27T01:58:38.161Z,73919
2015-10-27T01:58:50.492Z,73909
2015-10-27T01:59:02.852Z,73917
2015-10-27T01:59:15.196Z,73910
2015-10-27T01:59:27.555Z,73914
2015-10-27T01:59:39.930Z,73915
2015-10-27T01:59:52.245Z,73916
2015-10-27T02:00:04.589Z,73915
2015-10-27T02:00:16.917Z,73911
2015-10-27T02:00:29.245Z,73909
2015-10-27T02:00:41.607Z,73914
2015-10-27T02:00:53.919Z,73911
2015-10-27T02:01:06.263Z,73910
2015-10-27T02:01:18.607Z,73916
2015-10-27T02:01:30.966Z,73919
2015-10-27T02:01:43.313Z,73915
2015-10-27T02:01:55.657Z,73916
2015-10-27T02:02:08.000Z,73916
2015-10-27T02:02:20.329Z,73912
2015-10-27T02:02:32.657Z,73906
2015-10-27T02:02:44.988Z,73912
2015-10-27T02:02:57.316Z,73914
2015-10-27T02:03:09.660Z,73912
2015-10-27T02:03:22.003Z,73913
2015-10-27T02:03:34.347Z,73908
2015-10-27T02:03:46.710Z,73911
2015-10-27T02:03:59.038Z,73909
2015-10-27T02:04:11.366Z,73911
2015-10-27T02:04:23.694Z,73913
2015-10-27T02:04:36.038Z,73912
2015-10-27T02:04:48.368Z,73915
2015-10-27T02:04:59.993Z,73909
2015-10-27T02:05:12.337Z,73909
2015-10-27T02:05:24.696Z,73910
2015-10-27T02:05:37.071Z,73917
2015-10-27T02:05:49.402Z,73916
2015-10-27T02:06:01.730Z,73916
2015-10-27T02:06:14.043Z,73914
2015-10-27T02:06:26.386Z,73918
2015-10-27T02:06:38.699Z,73907
2015-10-27T02:06:51.046Z,73908
2015-10-27T02:07:03.374Z,73915
2015-10-27T02:07:15.733Z,73915
2015-10-27T02:07:28.077Z,73907
2015-10-27T02:07:40.436Z,73912
2015-10-27T02:07:52.783Z,73911
2015-10-27T02:08:05.377Z,73915
2015-10-27T02:08:17.705Z,73905
2015-10-27T02:08:30.049Z,73912
2015-10-27T02:08:42.379Z,73912
2015-10-27T02:08:54.707Z,73917
2015-10-27T02:09:07.051Z,73909
2015-10-27T02:09:19.394Z,73911
2015-10-27T02:09:31.754Z,73915
2015-10-27T02:09:44.116Z,73913
2015-10-27T02:09:56.476Z,73912
2015-10-27T02:10:08.804Z,73909
2015-10-27T02:10:21.132Z,73908
2015-10-27T02:10:33.460Z,73910
2015-10-27T02:10:45.775Z,73905
2015-10-27T02:10:58.104Z,73911
2015-10-27T02:11:10.447Z,73910
2015-10-27T02:11:22.791Z,73917
2015-10-27T02:11:34.432Z,73916
2015-10-27T02:11:46.777Z,73913
2015-10-27T02:11:57.684Z,73920
2015-10-27T02:12:10.012Z,73915
2015-10-27T02:12:22.340Z,73911
2015-10-27T02:12:34.684Z,73910
2015-10-27T02:12:47.015Z,73914
2015-10-27T02:12:59.343Z,73916
2015-10-27T02:13:11.718Z,73919
2015-10-27T02:13:24.077Z,73917
2015-10-27T02:13:36.405Z,73914
2015-10-27T02:13:48.736Z,73916
2015-10-27T02:14:01.064Z,73912
2015-10-27T02:14:13.392Z,73908
2015-10-27T02:14:25.720Z,73911
2015-10-27T02:14:38.064Z,73913
2015-10-27T02:14:50.395Z,73909
2015-10-27T02:15:02.739Z,73914
2015-10-27T02:15:15.082Z,73909
2015-10-27T02:15:27.442Z,73918
2015-10-27T02:15:39.770Z,73907
2015-10-27T02:15:52.101Z,73914
2015-10-27T02:16:04.429Z,73911
2015-10-27T02:16:16.757Z,73910
2015-10-27T02:16:29.101Z,73913
2015-10-27T02:16:41.445Z,73912
2015-10-27T02:16:53.807Z,73905
2015-10-27T02:17:06.151Z,73917
2015-10-27T02:17:18.479Z,73917
2015-10-27T02:17:30.791Z,73912
2015-10-27T02:17:43.122Z,73913
2015-10-27T02:17:55.465Z,73907
2015-10-27T02:18:07.825Z,73909
2015-10-27T02:18:20.153Z,73917
2015-10-27T02:18:32.497Z,73916
2015-10-27T02:18:44.843Z,73909
2015-10-27T02:18:57.171Z,73917
2015-10-27T02:19:09.500Z,73919
2015-10-27T02:19:21.828Z,73911
2015-10-27T02:19:34.156Z,73913
2015-10-27T02:19:46.471Z,73913
2015-10-27T02:19:58.799Z,73913
2015-10-27T02:20:11.143Z,73918
2015-10-27T02:20:23.487Z,73915
2015-10-27T02:20:35.846Z,73911
2015-10-27T02:20:48.193Z,73912
2015-10-27T02:21:00.506Z,73913
2015-10-27T02:21:12.834Z,73911
2015-10-27T02:21:25.162Z,73910
2015-10-27T02:21:37.490Z,73908
2015-10-27T02:21:49.836Z,73914
2015-10-27T02:22:02.179Z,73909
2015-10-27T02:22:14.508Z,73910
2015-10-27T02:22:26.867Z,73910
2015-10-27T02:22:39.226Z,73905
2015-10-27T02:22:51.588Z,73912
2015-10-27T02:23:03.916Z,73911
2015-10-27T02:23:16.244Z,73903
2015-10-27T02:23:28.572Z,73915
2015-10-27T02:23:40.916Z,73906
2015-10-27T02:23:53.247Z,73910
2015-10-27T02:24:05.591Z,73910
2015-10-27T02:24:17.216Z,73910
2015-10-27T02:24:29.559Z,73910
2015-10-27T02:24:41.922Z,73910
2015-10-27T02:24:54.281Z,73905
2015-10-27T02:25:06.609Z,73914
2015-10-27T02:25:18.937Z,73914
2015-10-27T02:25:31.266Z,73918
2015-10-27T02:25:43.596Z,73915
2015-10-27T02:25:55.924Z,73910
2015-10-27T02:26:08.252Z,73905
2015-10-27T02:26:20.596Z,73911
2015-10-27T02:26:32.955Z,73910
2015-10-27T02:26:45.302Z,73905
2015-10-27T02:26:57.630Z,73906
2015-10-27T02:27:09.958Z,73907
2015-10-27T02:27:21.583Z,73906
2015-10-27T02:27:33.911Z,73905
2015-10-27T02:27:46.242Z,73912
2015-10-27T02:27:58.586Z,73909
2015-10-27T02:28:10.914Z,73909
2015-10-27T02:28:23.274Z,73902
2015-10-27T02:28:35.664Z,73909
2015-10-27T02:28:47.995Z,73904
2015-10-27T02:29:00.323Z,73903
2015-10-27T02:29:12.667Z,73910
2015-10-27T02:29:24.995Z,73903
2015-10-27T02:29:37.323Z,73909
2015-10-27T02:29:49.654Z,73902
2015-10-27T02:30:01.872Z,73905
2015-10-27T02:30:14.216Z,73901
2015-10-27T02:30:26.575Z,73905
2015-10-27T02:30:38.935Z,73907
2015-10-27T02:30:51.266Z,73905
2015-10-27T02:31:03.594Z,73905
2015-10-27T02:31:15.922Z,73906
2015-10-27T02:31:28.250Z,73905
2015-10-27T02:31:40.578Z,73909
2015-10-27T02:31:52.910Z,73909
2015-10-27T02:32:05.253Z,73911
2015-10-27T02:32:17.597Z,73915
2015-10-27T02:32:29.956Z,73911
2015-10-27T02:32:42.319Z,73906
2015-10-27T02:32:54.663Z,73900
2015-10-27T02:33:06.991Z,73908
2015-10-27T02:33:19.319Z,73911
2015-10-27T02:33:31.897Z,73906
2015-10-27T02:33:44.211Z,73904
2015-10-27T02:33:56.540Z,73909
2015-10-27T02:34:08.711Z,73905
2015-10-27T02:34:21.040Z,73903
2015-10-27T02:34:33.383Z,73906
2015-10-27T02:34:45.746Z,73906
2015-10-27T02:34:58.089Z,73909
2015-10-27T02:35:10.418Z,73908
2015-10-27T02:35:22.730Z,73904
2015-10-27T02:35:35.074Z,73905
2015-10-27T02:35:47.421Z,73905
2015-10-27T02:35:59.733Z,73905
2015-10-27T02:36:12.077Z,73908
2015-10-27T02:36:24.421Z,73905
2015-10-27T02:36:36.780Z,73909
2015-10-27T02:36:49.127Z,73904
2015-10-27T02:37:01.455Z,73905
2015-10-27T02:37:13.799Z,73905
2015-10-27T02:37:26.127Z,73902
2015-10-27T02:37:38.455Z,73906
2015-10-27T02:37:50.769Z,73900
2015-10-27T02:38:03.113Z,73914
2015-10-27T02:38:15.301Z,73905
2015-10-27T02:38:27.644Z,73910
2015-10-27T02:38:40.004Z,73902